createdAt,value
2022-10-15T00:02:16.063Z,4.66
2022-10-15T00:07:36.825Z,4.87
2022-10-15T00:12:39.168Z,4.84
2022-10-15T00:17:41.458Z,4.70
2022-10-15T00:22:43.762Z,4.65
2022-10-15T00:27:46.477Z,4.82
2022-10-15T00:32:48.672Z,4.60
2022-10-15T00:38:09.549Z,4.68
2022-10-15T00:43:12.170Z,4.74
2022-10-15T00:48:14.475Z,4.91
2022-10-15T00:53:17.246Z,4.71
2022-10-15T00:58:28.714Z,4.66
2022-10-15T01:03:31.167Z,4.83
2022-10-15T01:08:34.787Z,4.85
2022-10-15T01:14:00.348Z,4.97
2022-10-15T01:19:06.834Z,4.90
2022-10-15T01:24:58.300Z,4.94
2022-10-15T01:30:25.815Z,4.93
2022-10-15T01:35:50.893Z,4.97
2022-10-15T01:41:29.355Z,4.27
2022-10-15T01:46:43.360Z,4.74
2022-10-15T01:51:51.861Z,4.82
2022-10-15T01:56:55.071Z,4.47
2022-10-15T02:02:16.320Z,4.56
2022-10-15T02:07:18.676Z,4.83
2022-10-15T02:13:04.004Z,4.89
2022-10-15T02:18:24.739Z,4.74
2022-10-15T02:24:02.429Z,4.87
2022-10-15T02:29:06.574Z,4.42
2022-10-15T02:34:12.492Z,4.48
2022-10-15T02:39:34.381Z,4.71
2022-10-15T02:44:36.726Z,4.61
2022-10-15T02:49:39.610Z,4.68
2022-10-15T02:54:42.722Z,4.50
2022-10-15T02:59:45.101Z,4.61
2022-10-15T03:05:06.168Z,4.61
2022-10-15T03:10:08.531Z,4.60
2022-10-15T03:15:29.730Z,4.76
2022-10-15T03:20:32.410Z,4.81
2022-10-15T03:25:34.791Z,4.44
2022-10-15T03:30:39.988Z,4.49
2022-10-15T03:35:42.807Z,4.79
2022-10-15T03:40:46.198Z,4.56
2022-10-15T03:46:16.858Z,4.46
2022-10-15T03:51:24.522Z,4.54
2022-10-15T03:56:35.303Z,4.55
2022-10-15T04:01:54.176Z,4.63
2022-10-15T04:06:56.607Z,4.62
2022-10-15T04:11:59.758Z,3.97
2022-10-15T04:17:02.352Z,4.15
2022-10-15T04:22:25.233Z,4.49
2022-10-15T04:27:32.728Z,4.63
2022-10-15T04:32:42.142Z,4.64
2022-10-15T04:37:44.467Z,4.51
2022-10-15T04:42:46.797Z,4.61
2022-10-15T04:47:49.539Z,4.72
2022-10-15T04:52:53.433Z,4.57
2022-10-15T04:58:00.096Z,4.54
2022-10-15T05:03:06.736Z,4.21
2022-10-15T05:08:24.487Z,4.51
2022-10-15T05:13:40.659Z,4.56
2022-10-15T05:18:45.810Z,4.62
2022-10-15T05:23:50.307Z,4.61
2022-10-15T05:29:14.860Z,4.47
2022-10-15T05:34:35.554Z,4.65
2022-10-15T05:39:42.825Z,4.73
2022-10-15T05:44:46.417Z,4.60
2022-10-15T05:50:11.018Z,4.68
2022-10-15T05:55:18.892Z,4.60
2022-10-15T06:00:21.265Z,4.74
2022-10-15T06:05:30.961Z,4.73
2022-10-15T06:10:38.064Z,4.62
2022-10-15T06:15:41.597Z,4.84
2022-10-15T06:20:45.734Z,5.06
2022-10-15T06:25:49.744Z,4.87
2022-10-15T06:30:52.011Z,4.95
2022-10-15T06:35:59.744Z,4.92
2022-10-15T06:41:06.346Z,4.97
2022-10-15T06:46:27.201Z,5.08
2022-10-15T06:51:32.296Z,5.24
2022-10-15T06:56:34.531Z,5.42
2022-10-15T07:01:41.503Z,5.24
2022-10-15T07:06:54.355Z,5.32
2022-10-15T07:11:58.155Z,5.23
2022-10-15T07:17:01.437Z,5.46
2022-10-15T07:22:04.735Z,5.34
2022-10-15T07:27:17.129Z,4.67
2022-10-15T07:32:21.287Z,5.47
2022-10-15T07:37:26.626Z,5.52
2022-10-15T07:42:28.823Z,5.54
2022-10-15T07:47:31.142Z,5.55
2022-10-15T07:52:36.000Z,5.61
2022-10-15T07:57:38.303Z,5.78
2022-10-15T08:02:41.058Z,5.63
2022-10-15T08:07:44.459Z,5.66
2022-10-15T08:12:48.870Z,6.09
2022-10-15T08:17:51.166Z,5.93
2022-10-15T08:23:17.285Z,6.01
2022-10-15T08:28:19.665Z,6.14
2022-10-15T08:33:22.024Z,6.06
2022-10-15T08:38:25.153Z,6.30
2022-10-15T08:43:38.454Z,6.50
2022-10-15T08:48:52.004Z,6.19
2022-10-15T08:53:58.420Z,6.44
2022-10-15T08:59:33.389Z,6.74
2022-10-15T09:04:51.212Z,6.65
2022-10-15T09:10:18.764Z,6.68
2022-10-15T09:15:24.113Z,6.89
2022-10-15T09:20:35.034Z,6.61
2022-10-15T09:25:38.524Z,6.99
2022-10-15T09:30:53.823Z,6.89
2022-10-15T09:36:17.756Z,7.11
2022-10-15T09:41:57.894Z,7.06
2022-10-15T09:47:15.712Z,7.08
2022-10-15T09:52:52.195Z,7.30
2022-10-15T09:58:00.746Z,6.81
2022-10-15T10:03:08.343Z,7.08
2022-10-15T10:08:11.789Z,6.96
2022-10-15T10:13:25.753Z,7.14
2022-10-15T10:18:28.568Z,6.99
2022-10-15T10:23:39.654Z,7.25
2022-10-15T10:28:57.092Z,7.43
2022-10-15T10:34:07.477Z,7.19
2022-10-15T10:39:10.548Z,7.61
2022-10-15T10:44:21.820Z,7.41
2022-10-15T10:49:35.692Z,7.62
2022-10-15T10:54:39.377Z,7.53
2022-10-15T11:00:01.344Z,7.77
2022-10-15T11:05:05.747Z,7.56
2022-10-15T11:10:42.420Z,7.84
2022-10-15T11:15:56.399Z,8.10
2022-10-15T11:21:31.392Z,7.90
2022-10-15T11:26:37.527Z,8.17
2022-10-15T11:32:42.102Z,8.19
2022-10-15T11:38:18.358Z,8.41
2022-10-15T11:43:38.777Z,8.43
2022-10-15T11:49:07.088Z,8.49
2022-10-15T11:54:43.573Z,8.61
2022-10-15T11:59:57.106Z,8.58
2022-10-15T12:05:06.095Z,8.18
2022-10-15T12:10:33.255Z,8.74
2022-10-15T12:15:54.113Z,8.84
2022-10-15T12:20:58.743Z,8.44
2022-10-15T12:26:01.020Z,8.60
2022-10-15T12:31:05.224Z,8.89
2022-10-15T12:36:20.120Z,8.82
2022-10-15T12:41:22.465Z,8.88
2022-10-15T12:46:43.553Z,8.98
2022-10-15T12:51:45.795Z,9.12
2022-10-15T12:56:49.953Z,8.53
2022-10-15T13:01:53.545Z,9.18
2022-10-15T13:07:04.112Z,9.09
2022-10-15T13:12:06.456Z,8.87
2022-10-15T13:17:20.273Z,8.55
2022-10-15T13:22:28.423Z,8.59
2022-10-15T13:27:37.936Z,8.81
2022-10-15T13:32:59.186Z,8.90
2022-10-15T13:38:03.685Z,8.85
2022-10-15T13:43:27.758Z,8.97
2022-10-15T13:48:32.143Z,8.75
2022-10-15T13:53:53.357Z,8.49
2022-10-15T13:58:56.209Z,8.27
2022-10-15T14:04:00.618Z,8.70
2022-10-15T14:09:27.305Z,8.23
2022-10-15T14:14:41.826Z,8.37
2022-10-15T14:20:26.355Z,8.14
2022-10-15T14:25:28.880Z,7.94
2022-10-15T14:30:32.929Z,7.93
2022-10-15T14:35:38.687Z,8.03
2022-10-15T14:40:41.092Z,7.78
2022-10-15T14:45:52.592Z,7.99
2022-10-15T14:50:59.531Z,7.73
2022-10-15T14:56:23.774Z,7.74
2022-10-15T15:01:27.855Z,7.36
2022-10-15T15:06:30.681Z,7.30
2022-10-15T15:11:32.924Z,7.41
2022-10-15T15:16:35.224Z,6.90
2022-10-15T15:21:37.414Z,6.90
2022-10-15T15:26:39.626Z,6.69
2022-10-15T15:31:43.000Z,6.79
2022-10-15T15:36:45.269Z,6.69
2022-10-15T15:41:47.889Z,6.43
2022-10-15T15:46:55.382Z,6.32
2022-10-15T15:51:57.639Z,6.09
2022-10-15T15:56:59.986Z,5.75
2022-10-15T16:02:04.704Z,6.19
2022-10-15T16:07:09.060Z,5.75
2022-10-15T16:12:14.132Z,6.11
2022-10-15T16:17:16.483Z,5.58
2022-10-15T16:22:18.864Z,5.69
2022-10-15T16:27:21.209Z,5.37
2022-10-15T16:32:23.907Z,5.79
2022-10-15T16:37:27.680Z,5.38
2022-10-15T16:42:30.304Z,5.50
2022-10-15T16:47:32.730Z,5.34
2022-10-15T16:52:36.814Z,5.50
2022-10-15T16:57:39.564Z,5.11
2022-10-15T17:02:43.071Z,5.14
2022-10-15T17:07:45.390Z,5.24
2022-10-15T17:13:06.316Z,5.29
2022-10-15T17:18:08.681Z,4.70
2022-10-15T17:23:10.951Z,5.31
2022-10-15T17:28:14.952Z,5.07
2022-10-15T17:33:17.337Z,5.24
2022-10-15T17:38:21.929Z,5.22
2022-10-15T17:43:43.916Z,4.82
2022-10-15T17:48:46.403Z,4.55
2022-10-15T17:53:51.685Z,4.99
2022-10-15T17:58:54.256Z,4.82
2022-10-15T18:03:56.765Z,4.82
2022-10-15T18:09:01.266Z,4.85
2022-10-15T18:14:04.308Z,4.78
2022-10-15T18:19:06.944Z,4.25
2022-10-15T18:24:09.232Z,3.70
2022-10-15T18:29:11.577Z,4.64
2022-10-15T18:34:14.134Z,4.55
2022-10-15T18:39:16.457Z,4.12
2022-10-15T18:44:21.685Z,4.41
2022-10-15T18:49:24.000Z,4.37
2022-10-15T18:54:26.225Z,4.51
2022-10-15T18:59:28.601Z,4.23
2022-10-15T19:04:33.384Z,4.32
2022-10-15T19:09:37.735Z,3.80
2022-10-15T19:14:40.239Z,3.76
2022-10-15T19:19:43.490Z,4.03
2022-10-15T19:24:45.753Z,3.93
2022-10-15T19:29:48.134Z,3.82
2022-10-15T19:34:50.501Z,4.09
2022-10-15T19:40:11.081Z,4.12
2022-10-15T19:50:40.478Z,4.02
2022-10-15T19:55:44.932Z,3.90
2022-10-15T20:01:06.865Z,3.71
2022-10-15T20:06:09.435Z,3.43
2022-10-15T20:11:30.703Z,4.06
2022-10-15T20:16:33.741Z,3.24
2022-10-15T20:21:37.918Z,3.58
2022-10-15T20:26:40.340Z,3.37
2022-10-15T20:31:42.593Z,3.53
2022-10-15T20:36:45.953Z,3.60
2022-10-15T20:41:51.753Z,3.46
2022-10-15T20:47:14.336Z,3.55
2022-10-15T20:52:24.473Z,3.43
2022-10-15T20:57:26.990Z,3.63
2022-10-15T21:02:29.848Z,3.38
2022-10-15T21:07:32.049Z,3.49
2022-10-15T21:12:36.936Z,3.59
2022-10-15T21:17:58.603Z,3.19
2022-10-15T21:23:01.500Z,3.30
2022-10-15T21:28:22.240Z,3.37
2022-10-15T21:33:24.721Z,3.14
2022-10-15T21:38:26.910Z,2.89
2022-10-15T21:43:29.175Z,3.21
2022-10-15T21:48:31.359Z,2.76
2022-10-15T21:53:33.642Z,3.20
2022-10-15T21:58:38.110Z,2.80
2022-10-15T22:03:40.778Z,2.77
2022-10-15T22:08:43.359Z,3.27
2022-10-15T22:14:06.893Z,3.23
2022-10-15T22:19:11.863Z,3.17
2022-10-15T22:24:33.198Z,2.89
2022-10-15T22:29:35.582Z,2.84
2022-10-15T22:34:37.818Z,3.09
2022-10-15T22:39:40.772Z,2.96
2022-10-15T22:44:42.984Z,2.79
2022-10-15T22:49:45.324Z,2.65
2022-10-15T22:54:47.555Z,2.50
2022-10-15T22:59:57.174Z,2.60
2022-10-15T23:05:01.587Z,2.61
2022-10-15T23:10:22.906Z,2.75
2022-10-15T23:15:25.083Z,2.52
2022-10-15T23:20:27.346Z,2.55
2022-10-15T23:25:30.659Z,2.31
2022-10-15T23:30:32.872Z,2.27
2022-10-15T23:41:07.634Z,2.37
2022-10-15T23:46:10.145Z,2.37
2022-10-15T23:51:21.873Z,2.48
2022-10-15T23:56:24.744Z,1.61
